This demonstration page uses our WeatherBlox Daily Observations layout. Learn more.

36.17497, -115.13722

Hourly Observations for August 23, 2019

Temp ( °F °C ) Dew Point ( °F °C ) Humidity (%) Winds ( mph kmh ) Pressure ( in mb ) Visibility ( mi km ) Precip ( " mm )
12:53 am 00:53 Clear 85 29.4 25 -3.9 11 11 Calm 29.65 1004 10 16.09344 0 0
1:53 am 01:53 Clear 83 28.3 27 -2.8 13 13 Calm 29.68 1005 10 16.09344 0 0
2:53 am 02:53 Clear 79 26.1 31 -0.6 17 17 Calm 29.71 1006 10 16.09344 0 0
3:53 am 03:53 Clear 78 25.6 33 0.6 19 19 N 5 7 29.71 1006 10 16.09344 0 0
4:53 am 04:53 Clear 76 24.4 33 0.6 21 21 NW 6 9 29.74 1007 10 16.09344 0 0
5:53 am 05:53 Clear 76 24.4 31 -0.6 19 19 WNW 3 6 29.74 1007 10 16.09344 0 0
6:53 am 06:53 Sunny 76 24.4 32 0 20 20 NW 7 11 29.77 1008 10 16.09344 0 0
7:53 am 07:53 Sunny 83 28.3 37 2.8 19 19 NE 7 11 29.8 1009 10 16.09344 0 0
8:53 am 08:53 Sunny 87 30.6 34 1.1 15 15 E 6 9 29.8 1009 10 16.09344 0 0
9:53 am 09:53 Sunny 91 32.8 37 2.8 15 15 E 6 9 29.8 1009 10 16.09344 0 0
10:53 am 10:53 Sunny 95 35 44 6.7 17 17 E 14 22 29.8 1009 10 16.09344 0 0
11:53 am 11:53 Sunny 98 36.7 44 6.7 16 16 E 15 24 29.8 1009 10 16.09344 0 0
12:53 pm 12:53 Sunny 99 37.2 45 7.2 16 16 SE 15 24 29.77 1008 10 16.09344 0 0
1:53 pm 13:53 Sunny 101 38.3 49 9.4 17 17 ESE 12 19 29.74 1007 10 16.09344 0 0
2:53 pm 14:53 Sunny 102 38.9 48 8.9 16 16 E 16 26 29.71 1006 10 16.09344 0 0
3:53 pm 15:53 Sunny 103 39.4 37 2.8 10 10 SSE 14 22 29.71 1006 10 16.09344 0 0
4:53 pm 16:53 Sunny 103 39.4 34 1.1 9 9 S 9 15 29.68 1005 10 16.09344 0 0
5:53 pm 17:53 Sunny 103 39.4 28 -2.2 7 7 SSW 10 17 29.68 1005 10 16.09344 0 0
6:53 pm 18:53 Sunny 101 38.3 32 0 9 9 S 13 20 29.71 1006 10 16.09344 0 0
7:53 pm 19:53 Clear 98 36.7 32 0 10 10 S 7 11 29.71 1006 10 16.09344 0 0
8:53 pm 20:53 Clear 96 35.6 37 2.8 13 13 S 13 20 29.74 1007 10 16.09344 0 0
9:53 pm 21:53 Clear 93 33.9 41 5 16 16 S 12 19 29.77 1008 10 16.09344 0 0
10:53 pm 22:53 Clear 92 33.3 42 5.6 18 18 S 13 20 29.8 1009 10 16.09344 0 0
11:53 pm 23:53 Clear 90 32.2 44 6.7 20 20 S 9 15 29.8 1009 10 16.09344 0 0

Powered by AerisWeather